sensor_id;sensor_type;location;lat;lon;timestamp;P1;durP1;ratioP1;P2;durP2;ratioP2
20375;SDS011;10347;51.828;6.466;2023-08-31T00:02:02;2.60;;;2.25;;
20375;SDS011;10347;51.828;6.466;2023-08-31T00:04:28;3.25;;;2.22;;
20375;SDS011;10347;51.828;6.466;2023-08-31T00:06:54;2.65;;;2.00;;
20375;SDS011;10347;51.828;6.466;2023-08-31T00:09:21;3.38;;;1.98;;
20375;SDS011;10347;51.828;6.466;2023-08-31T00:11:50;3.67;;;1.80;;
20375;SDS011;10347;51.828;6.466;2023-08-31T00:14:16;2.20;;;2.08;;
20375;SDS011;10347;51.828;6.466;2023-08-31T00:16:42;3.65;;;1.92;;
20375;SDS011;10347;51.828;6.466;2023-08-31T00:19:08;5.57;;;1.95;;
20375;SDS011;10347;51.828;6.466;2023-08-31T00:21:33;1.88;;;1.77;;
20375;SDS011;10347;51.828;6.466;2023-08-31T00:23:59;2.60;;;1.92;;
20375;SDS011;10347;51.828;6.466;2023-08-31T00:26:25;2.00;;;1.90;;
20375;SDS011;10347;51.828;6.466;2023-08-31T00:28:50;4.35;;;1.95;;
20375;SDS011;10347;51.828;6.466;2023-08-31T00:31:17;2.92;;;1.83;;
20375;SDS011;10347;51.828;6.466;2023-08-31T00:33:42;3.20;;;2.60;;
20375;SDS011;10347;51.828;6.466;2023-08-31T00:36:08;2.42;;;2.10;;
20375;SDS011;10347;51.828;6.466;2023-08-31T00:38:34;2.05;;;1.95;;
20375;SDS011;10347;51.828;6.466;2023-08-31T00:41:00;2.95;;;2.13;;
20375;SDS011;10347;51.828;6.466;2023-08-31T00:43:27;2.40;;;2.20;;
20375;SDS011;10347;51.828;6.466;2023-08-31T00:45:54;3.00;;;1.90;;
20375;SDS011;10347;51.828;6.466;2023-08-31T00:48:23;3.25;;;2.40;;
20375;SDS011;10347;51.828;6.466;2023-08-31T00:50:49;3.00;;;2.50;;
20375;SDS011;10347;51.828;6.466;2023-08-31T00:53:15;2.03;;;1.92;;
20375;SDS011;10347;51.828;6.466;2023-08-31T00:55:41;2.63;;;2.42;;
20375;SDS011;10347;51.828;6.466;2023-08-31T00:58:09;2.90;;;2.60;;
20375;SDS011;10347;51.828;6.466;2023-08-31T01:00:46;3.90;;;2.47;;
20375;SDS011;10347;51.828;6.466;2023-08-31T01:06:12;2.72;;;2.50;;
20375;SDS011;10347;51.828;6.466;2023-08-31T01:08:46;3.03;;;2.47;;
20375;SDS011;10347;51.828;6.466;2023-08-31T01:11:23;2.80;;;2.60;;
20375;SDS011;10347;51.828;6.466;2023-08-31T01:14:02;2.80;;;2.55;;
20375;SDS011;10347;51.828;6.466;2023-08-31T01:16:43;2.60;;;2.40;;
20375;SDS011;10347;51.828;6.466;2023-08-31T01:19:42;4.18;;;2.92;;
20375;SDS011;10347;51.828;6.466;2023-08-31T01:22:02;3.40;;;2.85;;
20375;SDS011;10347;51.828;6.466;2023-08-31T01:24:32;4.60;;;2.83;;
20375;SDS011;10347;51.828;6.466;2023-08-31T01:26:59;3.47;;;2.65;;
20375;SDS011;10347;51.828;6.466;2023-08-31T01:29:24;3.15;;;2.60;;
20375;SDS011;10347;51.828;6.466;2023-08-31T01:31:50;6.85;;;2.92;;
20375;SDS011;10347;51.828;6.466;2023-08-31T01:34:16;2.53;;;2.33;;
20375;SDS011;10347;51.828;6.466;2023-08-31T01:36:42;3.00;;;2.70;;
20375;SDS011;10347;51.828;6.466;2023-08-31T01:42:11;2.85;;;2.65;;
20375;SDS011;10347;51.828;6.466;2023-08-31T01:44:40;3.75;;;3.08;;
20375;SDS011;10347;51.828;6.466;2023-08-31T01:47:08;3.28;;;2.97;;
20375;SDS011;10347;51.828;6.466;2023-08-31T01:49:36;3.00;;;2.75;;
20375;SDS011;10347;51.828;6.466;2023-08-31T01:52:02;3.83;;;3.10;;
20375;SDS011;10347;51.828;6.466;2023-08-31T01:54:28;3.42;;;3.17;;
20375;SDS011;10347;51.828;6.466;2023-08-31T01:56:53;3.83;;;3.13;;
20375;SDS011;10347;51.828;6.466;2023-08-31T01:59:19;5.65;;;3.70;;
20375;SDS011;10347;51.828;6.466;2023-08-31T02:01:44;3.42;;;3.13;;
20375;SDS011;10347;51.828;6.466;2023-08-31T02:04:10;3.88;;;3.55;;
20375;SDS011;10347;51.828;6.466;2023-08-31T02:06:35;3.92;;;3.33;;
20375;SDS011;10347;51.828;6.466;2023-08-31T02:09:01;7.00;;;3.53;;
20375;SDS011;10347;51.828;6.466;2023-08-31T02:11:27;4.30;;;3.90;;
20375;SDS011;10347;51.828;6.466;2023-08-31T02:13:52;3.78;;;3.47;;
20375;SDS011;10347;51.828;6.466;2023-08-31T02:16:18;3.85;;;3.55;;
20375;SDS011;10347;51.828;6.466;2023-08-31T02:18:44;3.97;;;3.45;;
20375;SDS011;10347;51.828;6.466;2023-08-31T02:21:09;4.15;;;3.75;;
20375;SDS011;10347;51.828;6.466;2023-08-31T02:23:35;5.13;;;3.55;;
20375;SDS011;10347;51.828;6.466;2023-08-31T02:26:00;4.35;;;3.60;;
20375;SDS011;10347;51.828;6.466;2023-08-31T02:28:26;6.22;;;4.00;;
20375;SDS011;10347;51.828;6.466;2023-08-31T02:30:58;4.35;;;3.97;;
20375;SDS011;10347;51.828;6.466;2023-08-31T02:33:24;4.68;;;4.03;;
20375;SDS011;10347;51.828;6.466;2023-08-31T02:35:50;5.93;;;4.20;;
20375;SDS011;10347;51.828;6.466;2023-08-31T02:38:15;7.03;;;4.18;;
20375;SDS011;10347;51.828;6.466;2023-08-31T02:40:41;4.70;;;3.97;;
20375;SDS011;10347;51.828;6.466;2023-08-31T02:43:07;4.50;;;4.10;;
20375;SDS011;10347;51.828;6.466;2023-08-31T02:45:32;5.35;;;4.40;;
20375;SDS011;10347;51.828;6.466;2023-08-31T02:47:58;7.45;;;4.25;;
20375;SDS011;10347;51.828;6.466;2023-08-31T02:50:23;4.95;;;4.45;;
20375;SDS011;10347;51.828;6.466;2023-08-31T02:52:49;4.75;;;4.20;;
20375;SDS011;10347;51.828;6.466;2023-08-31T02:55:15;6.15;;;4.82;;
20375;SDS011;10347;51.828;6.466;2023-08-31T02:57:40;6.60;;;5.13;;
20375;SDS011;10347;51.828;6.466;2023-08-31T03:00:06;5.68;;;4.30;;
20375;SDS011;10347;51.828;6.466;2023-08-31T03:02:36;5.80;;;4.88;;
20375;SDS011;10347;51.828;6.466;2023-08-31T03:05:01;5.68;;;4.28;;
20375;SDS011;10347;51.828;6.466;2023-08-31T03:07:27;5.20;;;4.25;;
20375;SDS011;10347;51.828;6.466;2023-08-31T03:09:52;5.78;;;4.75;;
20375;SDS011;10347;51.828;6.466;2023-08-31T03:12:18;6.07;;;4.35;;
20375;SDS011;10347;51.828;6.466;2023-08-31T03:14:43;6.30;;;4.55;;
20375;SDS011;10347;51.828;6.466;2023-08-31T03:17:09;4.47;;;4.07;;
20375;SDS011;10347;51.828;6.466;2023-08-31T03:19:34;5.47;;;4.07;;
20375;SDS011;10347;51.828;6.466;2023-08-31T03:22:00;5.20;;;4.30;;
20375;SDS011;10347;51.828;6.466;2023-08-31T03:24:26;5.90;;;4.60;;
20375;SDS011;10347;51.828;6.466;2023-08-31T03:26:51;6.05;;;4.60;;
20375;SDS011;10347;51.828;6.466;2023-08-31T03:29:17;4.97;;;4.20;;
20375;SDS011;10347;51.828;6.466;2023-08-31T03:31:42;5.10;;;4.32;;
20375;SDS011;10347;51.828;6.466;2023-08-31T03:34:08;6.72;;;5.18;;
20375;SDS011;10347;51.828;6.466;2023-08-31T03:36:33;6.05;;;4.97;;
20375;SDS011;10347;51.828;6.466;2023-08-31T03:39:00;6.95;;;5.63;;
20375;SDS011;10347;51.828;6.466;2023-08-31T03:41:25;7.50;;;5.13;;
20375;SDS011;10347;51.828;6.466;2023-08-31T03:43:51;5.95;;;5.03;;
20375;SDS011;10347;51.828;6.466;2023-08-31T03:46:16;6.85;;;5.35;;
20375;SDS011;10347;51.828;6.466;2023-08-31T03:48:42;5.00;;;4.50;;
20375;SDS011;10347;51.828;6.466;2023-08-31T03:51:08;5.13;;;4.32;;
20375;SDS011;10347;51.828;6.466;2023-08-31T03:53:34;4.82;;;4.38;;
20375;SDS011;10347;51.828;6.466;2023-08-31T03:55:59;5.00;;;4.60;;
20375;SDS011;10347;51.828;6.466;2023-08-31T03:58:25;8.38;;;5.60;;
20375;SDS011;10347;51.828;6.466;2023-08-31T04:00:50;5.55;;;4.85;;
20375;SDS011;10347;51.828;6.466;2023-08-31T04:03:17;5.95;;;4.88;;
20375;SDS011;10347;51.828;6.466;2023-08-31T04:05:42;5.05;;;4.55;;
20375;SDS011;10347;51.828;6.466;2023-08-31T04:08:08;7.28;;;5.55;;
20375;SDS011;10347;51.828;6.466;2023-08-31T04:10:33;5.30;;;4.80;;
20375;SDS011;10347;51.828;6.466;2023-08-31T04:12:59;5.57;;;4.28;;
20375;SDS011;10347;51.828;6.466;2023-08-31T04:15:24;5.53;;;5.03;;
20375;SDS011;10347;51.828;6.466;2023-08-31T04:17:50;7.72;;;5.60;;
20375;SDS011;10347;51.828;6.466;2023-08-31T04:20:15;5.95;;;5.35;;
20375;SDS011;10347;51.828;6.466;2023-08-31T04:22:41;5.35;;;4.85;;
20375;SDS011;10347;51.828;6.466;2023-08-31T04:25:07;5.35;;;4.32;;
20375;SDS011;10347;51.828;6.466;2023-08-31T04:27:32;4.95;;;4.05;;
20375;SDS011;10347;51.828;6.466;2023-08-31T04:29:59;6.45;;;5.43;;
20375;SDS011;10347;51.828;6.466;2023-08-31T04:32:25;4.95;;;4.55;;
20375;SDS011;10347;51.828;6.466;2023-08-31T04:34:51;8.25;;;5.30;;
20375;SDS011;10347;51.828;6.466;2023-08-31T04:37:17;6.72;;;4.85;;
20375;SDS011;10347;51.828;6.466;2023-08-31T04:39:42;9.52;;;6.80;;
20375;SDS011;10347;51.828;6.466;2023-08-31T04:42:08;6.15;;;4.97;;
20375;SDS011;10347;51.828;6.466;2023-08-31T04:44:33;7.18;;;5.43;;
20375;SDS011;10347;51.828;6.466;2023-08-31T04:47:00;6.60;;;5.55;;
20375;SDS011;10347;51.828;6.466;2023-08-31T04:49:26;6.43;;;5.22;;
20375;SDS011;10347;51.828;6.466;2023-08-31T04:51:51;5.97;;;4.97;;
20375;SDS011;10347;51.828;6.466;2023-08-31T04:54:17;5.57;;;5.00;;
20375;SDS011;10347;51.828;6.466;2023-08-31T04:56:43;8.00;;;5.30;;
20375;SDS011;10347;51.828;6.466;2023-08-31T04:59:09;7.45;;;5.75;;
20375;SDS011;10347;51.828;6.466;2023-08-31T05:01:35;6.97;;;5.47;;
20375;SDS011;10347;51.828;6.466;2023-08-31T05:04:01;5.43;;;4.93;;
20375;SDS011;10347;51.828;6.466;2023-08-31T05:06:28;6.07;;;5.32;;
20375;SDS011;10347;51.828;6.466;2023-08-31T05:08:53;6.15;;;5.25;;
20375;SDS011;10347;51.828;6.466;2023-08-31T05:11:19;6.90;;;6.07;;
20375;SDS011;10347;51.828;6.466;2023-08-31T05:13:44;6.90;;;6.20;;
20375;SDS011;10347;51.828;6.466;2023-08-31T05:16:10;6.90;;;6.25;;
20375;SDS011;10347;51.828;6.466;2023-08-31T05:18:36;8.10;;;6.50;;
20375;SDS011;10347;51.828;6.466;2023-08-31T05:21:03;9.93;;;8.20;;
20375;SDS011;10347;51.828;6.466;2023-08-31T05:23:29;8.50;;;6.38;;
20375;SDS011;10347;51.828;6.466;2023-08-31T05:25:55;10.27;;;7.88;;
20375;SDS011;10347;51.828;6.466;2023-08-31T05:28:21;10.07;;;8.98;;
20375;SDS011;10347;51.828;6.466;2023-08-31T05:30:48;8.43;;;7.13;;
20375;SDS011;10347;51.828;6.466;2023-08-31T05:33:15;8.05;;;7.13;;
20375;SDS011;10347;51.828;6.466;2023-08-31T05:35:41;10.10;;;7.93;;
20375;SDS011;10347;51.828;6.466;2023-08-31T05:38:07;11.52;;;9.45;;
20375;SDS011;10347;51.828;6.466;2023-08-31T05:40:33;11.63;;;8.30;;
20375;SDS011;10347;51.828;6.466;2023-08-31T05:42:58;10.75;;;9.07;;
20375;SDS011;10347;51.828;6.466;2023-08-31T05:45:24;10.27;;;8.43;;
20375;SDS011;10347;51.828;6.466;2023-08-31T05:47:49;9.88;;;8.80;;
20375;SDS011;10347;51.828;6.466;2023-08-31T05:50:15;11.32;;;10.13;;
20375;SDS011;10347;51.828;6.466;2023-08-31T05:52:40;13.63;;;10.30;;
20375;SDS011;10347;51.828;6.466;2023-08-31T05:55:09;9.35;;;8.45;;
20375;SDS011;10347;51.828;6.466;2023-08-31T05:57:35;13.35;;;11.80;;
20375;SDS011;10347;51.828;6.466;2023-08-31T06:00:02;10.15;;;8.55;;
20375;SDS011;10347;51.828;6.466;2023-08-31T06:02:29;12.27;;;9.38;;
20375;SDS011;10347;51.828;6.466;2023-08-31T06:04:55;8.98;;;7.63;;
20375;SDS011;10347;51.828;6.466;2023-08-31T06:07:21;11.07;;;7.95;;
20375;SDS011;10347;51.828;6.466;2023-08-31T06:09:46;9.82;;;8.60;;
20375;SDS011;10347;51.828;6.466;2023-08-31T06:12:13;9.27;;;8.27;;
20375;SDS011;10347;51.828;6.466;2023-08-31T06:14:39;10.27;;;8.15;;
20375;SDS011;10347;51.828;6.466;2023-08-31T06:17:04;11.10;;;7.80;;
20375;SDS011;10347;51.828;6.466;2023-08-31T06:19:30;8.15;;;6.75;;
20375;SDS011;10347;51.828;6.466;2023-08-31T06:21:55;12.00;;;8.25;;
20375;SDS011;10347;51.828;6.466;2023-08-31T06:24:21;9.35;;;7.60;;
20375;SDS011;10347;51.828;6.466;2023-08-31T06:26:46;10.02;;;7.40;;
20375;SDS011;10347;51.828;6.466;2023-08-31T06:29:12;7.32;;;6.63;;
20375;SDS011;10347;51.828;6.466;2023-08-31T06:31:37;9.50;;;7.55;;
20375;SDS011;10347;51.828;6.466;2023-08-31T06:34:03;8.60;;;7.13;;
20375;SDS011;10347;51.828;6.466;2023-08-31T06:36:31;6.95;;;6.13;;
20375;SDS011;10347;51.828;6.466;2023-08-31T06:38:57;8.85;;;6.78;;
20375;SDS011;10347;51.828;6.466;2023-08-31T06:41:22;7.60;;;6.68;;
20375;SDS011;10347;51.828;6.466;2023-08-31T06:43:48;7.47;;;6.75;;
20375;SDS011;10347;51.828;6.466;2023-08-31T06:46:14;7.95;;;6.20;;
20375;SDS011;10347;51.828;6.466;2023-08-31T06:48:39;11.75;;;7.78;;
20375;SDS011;10347;51.828;6.466;2023-08-31T06:51:05;10.38;;;8.43;;
20375;SDS011;10347;51.828;6.466;2023-08-31T06:53:30;9.63;;;6.55;;
20375;SDS011;10347;51.828;6.466;2023-08-31T06:55:59;9.15;;;7.15;;
20375;SDS011;10347;51.828;6.466;2023-08-31T06:58:24;9.30;;;7.13;;
20375;SDS011;10347;51.828;6.466;2023-08-31T07:00:50;8.35;;;6.47;;
20375;SDS011;10347;51.828;6.466;2023-08-31T07:03:15;6.95;;;6.25;;
20375;SDS011;10347;51.828;6.466;2023-08-31T07:05:41;9.77;;;7.13;;
20375;SDS011;10347;51.828;6.466;2023-08-31T07:08:08;7.68;;;6.95;;
20375;SDS011;10347;51.828;6.466;2023-08-31T07:10:34;6.80;;;5.82;;
20375;SDS011;10347;51.828;6.466;2023-08-31T07:13:03;6.82;;;6.03;;
20375;SDS011;10347;51.828;6.466;2023-08-31T07:15:30;7.43;;;5.68;;
20375;SDS011;10347;51.828;6.466;2023-08-31T07:17:56;6.68;;;5.97;;
20375;SDS011;10347;51.828;6.466;2023-08-31T07:20:21;6.60;;;5.90;;
20375;SDS011;10347;51.828;6.466;2023-08-31T07:22:47;6.75;;;5.55;;
20375;SDS011;10347;51.828;6.466;2023-08-31T07:25:13;7.82;;;5.65;;
20375;SDS011;10347;51.828;6.466;2023-08-31T07:27:38;6.70;;;6.05;;
20375;SDS011;10347;51.828;6.466;2023-08-31T07:30:04;7.28;;;5.88;;
20375;SDS011;10347;51.828;6.466;2023-08-31T07:32:30;7.07;;;6.20;;
20375;SDS011;10347;51.828;6.466;2023-08-31T07:34:56;8.20;;;5.63;;
20375;SDS011;10347;51.828;6.466;2023-08-31T07:37:22;8.25;;;5.75;;
20375;SDS011;10347;51.828;6.466;2023-08-31T07:39:48;8.15;;;6.10;;
20375;SDS011;10347;51.828;6.466;2023-08-31T07:42:13;7.53;;;5.45;;
20375;SDS011;10347;51.828;6.466;2023-08-31T07:44:39;7.38;;;5.60;;
20375;SDS011;10347;51.828;6.466;2023-08-31T07:47:06;6.05;;;4.82;;
20375;SDS011;10347;51.828;6.466;2023-08-31T07:49:32;8.00;;;5.10;;
20375;SDS011;10347;51.828;6.466;2023-08-31T07:51:58;6.35;;;5.43;;
20375;SDS011;10347;51.828;6.466;2023-08-31T07:54:24;6.10;;;5.32;;
20375;SDS011;10347;51.828;6.466;2023-08-31T07:56:50;7.32;;;5.40;;
20375;SDS011;10347;51.828;6.466;2023-08-31T07:59:16;6.70;;;6.00;;
20375;SDS011;10347;51.828;6.466;2023-08-31T08:01:43;5.32;;;4.82;;
20375;SDS011;10347;51.828;6.466;2023-08-31T08:04:09;5.68;;;5.18;;
20375;SDS011;10347;51.828;6.466;2023-08-31T08:06:36;7.72;;;4.75;;
20375;SDS011;10347;51.828;6.466;2023-08-31T08:09:01;5.72;;;4.28;;
20375;SDS011;10347;51.828;6.466;2023-08-31T08:11:27;4.95;;;4.45;;
20375;SDS011;10347;51.828;6.466;2023-08-31T08:13:53;5.50;;;4.35;;
20375;SDS011;10347;51.828;6.466;2023-08-31T08:16:18;6.60;;;4.28;;
20375;SDS011;10347;51.828;6.466;2023-08-31T08:18:44;6.95;;;4.50;;
20375;SDS011;10347;51.828;6.466;2023-08-31T08:21:09;5.82;;;4.18;;
20375;SDS011;10347;51.828;6.466;2023-08-31T08:23:35;7.72;;;5.07;;
20375;SDS011;10347;51.828;6.466;2023-08-31T08:26:00;7.85;;;4.45;;
20375;SDS011;10347;51.828;6.466;2023-08-31T08:28:26;5.00;;;4.25;;
20375;SDS011;10347;51.828;6.466;2023-08-31T08:30:53;7.47;;;4.93;;
20375;SDS011;10347;51.828;6.466;2023-08-31T08:33:19;6.38;;;4.82;;
20375;SDS011;10347;51.828;6.466;2023-08-31T08:35:45;5.38;;;4.00;;
20375;SDS011;10347;51.828;6.466;2023-08-31T08:38:11;8.52;;;4.97;;
20375;SDS011;10347;51.828;6.466;2023-08-31T08:40:36;8.13;;;5.25;;
20375;SDS011;10347;51.828;6.466;2023-08-31T08:43:02;7.85;;;4.88;;
20375;SDS011;10347;51.828;6.466;2023-08-31T08:45:40;7.00;;;4.72;;
20375;SDS011;10347;51.828;6.466;2023-08-31T08:48:11;6.43;;;5.10;;
20375;SDS011;10347;51.828;6.466;2023-08-31T08:50:38;5.10;;;4.63;;
20375;SDS011;10347;51.828;6.466;2023-08-31T08:53:05;5.15;;;4.65;;
20375;SDS011;10347;51.828;6.466;2023-08-31T08:55:31;5.75;;;4.35;;
20375;SDS011;10347;51.828;6.466;2023-08-31T08:57:58;5.47;;;3.70;;
20375;SDS011;10347;51.828;6.466;2023-08-31T09:00:25;5.85;;;4.32;;
20375;SDS011;10347;51.828;6.466;2023-08-31T09:02:52;8.10;;;4.75;;
20375;SDS011;10347;51.828;6.466;2023-08-31T09:05:18;7.35;;;4.53;;
20375;SDS011;10347;51.828;6.466;2023-08-31T09:10:40;6.63;;;4.57;;
20375;SDS011;10347;51.828;6.466;2023-08-31T09:13:08;5.93;;;4.50;;
20375;SDS011;10347;51.828;6.466;2023-08-31T09:15:39;6.95;;;4.53;;
20375;SDS011;10347;51.828;6.466;2023-08-31T09:18:06;6.38;;;4.22;;
20375;SDS011;10347;51.828;6.466;2023-08-31T09:20:42;6.50;;;4.80;;
20375;SDS011;10347;51.828;6.466;2023-08-31T09:23:09;7.65;;;4.47;;
20375;SDS011;10347;51.828;6.466;2023-08-31T09:25:40;4.80;;;4.10;;
20375;SDS011;10347;51.828;6.466;2023-08-31T09:28:11;4.15;;;3.75;;
20375;SDS011;10347;51.828;6.466;2023-08-31T09:30:37;5.28;;;4.30;;
20375;SDS011;10347;51.828;6.466;2023-08-31T09:33:05;4.75;;;4.25;;
20375;SDS011;10347;51.828;6.466;2023-08-31T09:35:31;5.60;;;3.50;;
20375;SDS011;10347;51.828;6.466;2023-08-31T09:37:57;4.68;;;4.18;;
20375;SDS011;10347;51.828;6.466;2023-08-31T09:40:23;5.80;;;4.00;;
20375;SDS011;10347;51.828;6.466;2023-08-31T09:42:50;7.72;;;4.57;;
20375;SDS011;10347;51.828;6.466;2023-08-31T09:45:24;6.75;;;4.43;;
20375;SDS011;10347;51.828;6.466;2023-08-31T09:47:58;4.95;;;4.18;;
20375;SDS011;10347;51.828;6.466;2023-08-31T09:50:26;4.30;;;3.70;;
20375;SDS011;10347;51.828;6.466;2023-08-31T09:53:01;6.35;;;4.20;;
20375;SDS011;10347;51.828;6.466;2023-08-31T09:55:30;7.50;;;3.85;;
20375;SDS011;10347;51.828;6.466;2023-08-31T09:58:00;4.18;;;3.50;;
20375;SDS011;10347;51.828;6.466;2023-08-31T10:00:27;4.38;;;3.47;;
20375;SDS011;10347;51.828;6.466;2023-08-31T10:02:55;3.17;;;2.83;;
20375;SDS011;10347;51.828;6.466;2023-08-31T10:05:25;4.18;;;3.10;;
20375;SDS011;10347;51.828;6.466;2023-08-31T10:07:51;5.93;;;3.30;;
20375;SDS011;10347;51.828;6.466;2023-08-31T10:10:17;4.68;;;3.08;;
20375;SDS011;10347;51.828;6.466;2023-08-31T10:12:46;6.03;;;2.90;;
20375;SDS011;10347;51.828;6.466;2023-08-31T10:15:13;3.67;;;3.03;;
20375;SDS011;10347;51.828;6.466;2023-08-31T10:17:40;3.97;;;2.83;;
20375;SDS011;10347;51.828;6.466;2023-08-31T10:20:07;5.07;;;3.15;;
20375;SDS011;10347;51.828;6.466;2023-08-31T10:22:34;4.18;;;2.70;;
20375;SDS011;10347;51.828;6.466;2023-08-31T10:25:01;3.88;;;2.42;;
20375;SDS011;10347;51.828;6.466;2023-08-31T10:27:34;3.58;;;2.60;;
20375;SDS011;10347;51.828;6.466;2023-08-31T10:30:47;2.50;;;2.30;;
20375;SDS011;10347;51.828;6.466;2023-08-31T10:35:43;2.53;;;2.30;;
20375;SDS011;10347;51.828;6.466;2023-08-31T10:38:17;3.05;;;2.10;;
20375;SDS011;10347;51.828;6.466;2023-08-31T10:41:02;2.40;;;2.10;;
20375;SDS011;10347;51.828;6.466;2023-08-31T10:46:24;2.78;;;2.17;;
20375;SDS011;10347;51.828;6.466;2023-08-31T10:48:54;2.70;;;1.88;;
20375;SDS011;10347;51.828;6.466;2023-08-31T10:51:41;3.20;;;1.73;;
20375;SDS011;10347;51.828;6.466;2023-08-31T11:02:56;5.38;;;1.85;;
20375;SDS011;10347;51.828;6.466;2023-08-31T11:05:07;1.88;;;1.52;;
20375;SDS011;10347;51.828;6.466;2023-08-31T11:07:34;4.03;;;1.30;;
20375;SDS011;10347;51.828;6.466;2023-08-31T11:12:48;3.25;;;1.63;;
20375;SDS011;10347;51.828;6.466;2023-08-31T11:15:19;5.55;;;1.88;;
20375;SDS011;10347;51.828;6.466;2023-08-31T11:17:46;2.45;;;1.50;;
20375;SDS011;10347;51.828;6.466;2023-08-31T11:20:14;2.05;;;1.77;;
20375;SDS011;10347;51.828;6.466;2023-08-31T11:22:41;2.33;;;1.80;;
20375;SDS011;10347;51.828;6.466;2023-08-31T11:25:09;2.65;;;1.48;;
20375;SDS011;10347;51.828;6.466;2023-08-31T11:27:36;4.10;;;1.98;;
20375;SDS011;10347;51.828;6.466;2023-08-31T11:30:02;2.42;;;1.50;;
20375;SDS011;10347;51.828;6.466;2023-08-31T11:32:35;2.13;;;1.42;;
20375;SDS011;10347;51.828;6.466;2023-08-31T11:35:01;2.45;;;1.63;;
20375;SDS011;10347;51.828;6.466;2023-08-31T11:37:28;4.57;;;1.70;;
20375;SDS011;10347;51.828;6.466;2023-08-31T11:39:54;2.55;;;1.52;;
20375;SDS011;10347;51.828;6.466;2023-08-31T11:42:20;2.38;;;1.60;;
20375;SDS011;10347;51.828;6.466;2023-08-31T11:44:47;1.75;;;1.55;;
20375;SDS011;10347;51.828;6.466;2023-08-31T11:47:14;1.85;;;1.35;;
20375;SDS011;10347;51.828;6.466;2023-08-31T11:49:44;3.33;;;1.60;;
20375;SDS011;10347;51.828;6.466;2023-08-31T11:52:11;2.80;;;1.75;;
20375;SDS011;10347;51.828;6.466;2023-08-31T11:54:38;3.72;;;2.03;;
20375;SDS011;10347;51.828;6.466;2023-08-31T11:57:07;4.25;;;2.20;;
20375;SDS011;10347;51.828;6.466;2023-08-31T11:59:34;3.30;;;1.98;;
20375;SDS011;10347;51.828;6.466;2023-08-31T12:02:01;2.55;;;2.30;;
20375;SDS011;10347;51.828;6.466;2023-08-31T12:04:30;3.28;;;1.80;;
20375;SDS011;10347;51.828;6.466;2023-08-31T12:07:00;2.72;;;1.65;;
20375;SDS011;10347;51.828;6.466;2023-08-31T12:09:31;5.15;;;2.00;;
20375;SDS011;10347;51.828;6.466;2023-08-31T12:11:57;2.70;;;1.80;;
20375;SDS011;10347;51.828;6.466;2023-08-31T12:14:24;2.00;;;1.80;;
20375;SDS011;10347;51.828;6.466;2023-08-31T12:16:51;2.58;;;1.90;;
20375;SDS011;10347;51.828;6.466;2023-08-31T12:19:18;2.05;;;1.77;;
20375;SDS011;10347;51.828;6.466;2023-08-31T12:21:44;5.97;;;2.10;;
20375;SDS011;10347;51.828;6.466;2023-08-31T12:24:11;1.67;;;1.55;;
20375;SDS011;10347;51.828;6.466;2023-08-31T12:26:37;3.13;;;2.33;;
20375;SDS011;10347;51.828;6.466;2023-08-31T12:29:03;1.92;;;1.60;;
20375;SDS011;10347;51.828;6.466;2023-08-31T12:31:32;2.83;;;1.63;;
20375;SDS011;10347;51.828;6.466;2023-08-31T12:33:58;2.75;;;1.70;;
20375;SDS011;10347;51.828;6.466;2023-08-31T12:36:24;1.90;;;1.60;;
20375;SDS011;10347;51.828;6.466;2023-08-31T12:38:50;3.58;;;1.55;;
20375;SDS011;10347;51.828;6.466;2023-08-31T12:41:16;2.15;;;1.70;;
20375;SDS011;10347;51.828;6.466;2023-08-31T12:43:42;1.50;;;1.40;;
20375;SDS011;10347;51.828;6.466;2023-08-31T12:46:08;1.15;;;1.10;;
20375;SDS011;10347;51.828;6.466;2023-08-31T12:48:34;2.15;;;1.67;;
20375;SDS011;10347;51.828;6.466;2023-08-31T12:51:00;1.20;;;1.20;;
20375;SDS011;10347;51.828;6.466;2023-08-31T12:53:26;1.90;;;1.13;;
20375;SDS011;10347;51.828;6.466;2023-08-31T12:55:52;1.25;;;1.15;;
20375;SDS011;10347;51.828;6.466;2023-08-31T12:58:18;1.98;;;1.20;;
20375;SDS011;10347;51.828;6.466;2023-08-31T13:00:44;2.05;;;1.10;;
20375;SDS011;10347;51.828;6.466;2023-08-31T13:03:11;1.25;;;1.15;;
20375;SDS011;10347;51.828;6.466;2023-08-31T13:05:40;2.25;;;1.20;;
20375;SDS011;10347;51.828;6.466;2023-08-31T13:08:06;3.00;;;1.30;;
20375;SDS011;10347;51.828;6.466;2023-08-31T13:10:33;2.35;;;1.60;;
20375;SDS011;10347;51.828;6.466;2023-08-31T13:12:59;1.30;;;1.20;;
20375;SDS011;10347;51.828;6.466;2023-08-31T13:15:24;2.42;;;1.40;;
20375;SDS011;10347;51.828;6.466;2023-08-31T13:17:50;2.88;;;1.52;;
20375;SDS011;10347;51.828;6.466;2023-08-31T13:20:15;2.40;;;1.20;;
20375;SDS011;10347;51.828;6.466;2023-08-31T13:22:41;1.55;;;1.33;;
20375;SDS011;10347;51.828;6.466;2023-08-31T13:25:07;2.10;;;1.52;;
20375;SDS011;10347;51.828;6.466;2023-08-31T13:27:32;2.50;;;1.48;;
20375;SDS011;10347;51.828;6.466;2023-08-31T13:29:58;2.72;;;1.70;;
20375;SDS011;10347;51.828;6.466;2023-08-31T13:32:24;2.10;;;1.30;;
20375;SDS011;10347;51.828;6.466;2023-08-31T13:34:50;3.45;;;1.55;;
20375;SDS011;10347;51.828;6.466;2023-08-31T13:37:16;3.30;;;1.48;;
20375;SDS011;10347;51.828;6.466;2023-08-31T13:39:41;1.85;;;1.42;;
20375;SDS011;10347;51.828;6.466;2023-08-31T13:42:07;3.75;;;1.92;;
20375;SDS011;10347;51.828;6.466;2023-08-31T13:44:33;2.45;;;1.73;;
20375;SDS011;10347;51.828;6.466;2023-08-31T13:46:59;3.60;;;1.88;;
20375;SDS011;10347;51.828;6.466;2023-08-31T13:49:24;5.68;;;1.85;;
20375;SDS011;10347;51.828;6.466;2023-08-31T13:51:50;3.72;;;1.70;;
20375;SDS011;10347;51.828;6.466;2023-08-31T13:54:15;2.53;;;2.05;;
20375;SDS011;10347;51.828;6.466;2023-08-31T13:56:41;1.70;;;1.50;;
20375;SDS011;10347;51.828;6.466;2023-08-31T13:59:08;4.35;;;1.55;;
20375;SDS011;10347;51.828;6.466;2023-08-31T14:01:33;2.22;;;1.60;;
20375;SDS011;10347;51.828;6.466;2023-08-31T14:03:59;1.85;;;1.52;;
20375;SDS011;10347;51.828;6.466;2023-08-31T14:06:26;1.67;;;1.40;;
20375;SDS011;10347;51.828;6.466;2023-08-31T14:08:51;1.92;;;1.25;;
20375;SDS011;10347;51.828;6.466;2023-08-31T14:11:17;1.85;;;1.30;;
20375;SDS011;10347;51.828;6.466;2023-08-31T14:13:43;1.90;;;1.20;;
20375;SDS011;10347;51.828;6.466;2023-08-31T14:16:11;2.85;;;1.40;;
20375;SDS011;10347;51.828;6.466;2023-08-31T14:18:37;1.58;;;1.42;;
20375;SDS011;10347;51.828;6.466;2023-08-31T14:21:02;3.00;;;1.30;;
20375;SDS011;10347;51.828;6.466;2023-08-31T14:23:28;2.03;;;1.70;;
20375;SDS011;10347;51.828;6.466;2023-08-31T14:26:00;3.63;;;1.70;;
20375;SDS011;10347;51.828;6.466;2023-08-31T14:28:26;3.55;;;1.80;;
20375;SDS011;10347;51.828;6.466;2023-08-31T14:30:52;1.60;;;1.50;;
20375;SDS011;10347;51.828;6.466;2023-08-31T14:33:17;2.20;;;1.80;;
20375;SDS011;10347;51.828;6.466;2023-08-31T14:35:43;2.65;;;1.55;;
20375;SDS011;10347;51.828;6.466;2023-08-31T14:38:10;2.53;;;1.80;;
20375;SDS011;10347;51.828;6.466;2023-08-31T14:40:37;1.70;;;1.60;;
20375;SDS011;10347;51.828;6.466;2023-08-31T14:43:06;2.10;;;1.90;;
20375;SDS011;10347;51.828;6.466;2023-08-31T14:45:31;1.60;;;1.50;;
20375;SDS011;10347;51.828;6.466;2023-08-31T14:47:57;4.57;;;1.83;;
20375;SDS011;10347;51.828;6.466;2023-08-31T14:50:23;2.80;;;1.80;;
20375;SDS011;10347;51.828;6.466;2023-08-31T14:52:48;4.18;;;1.92;;
20375;SDS011;10347;51.828;6.466;2023-08-31T14:55:14;2.33;;;1.88;;
20375;SDS011;10347;51.828;6.466;2023-08-31T14:57:40;2.38;;;1.70;;
20375;SDS011;10347;51.828;6.466;2023-08-31T15:00:07;4.30;;;1.95;;
20375;SDS011;10347;51.828;6.466;2023-08-31T15:02:34;3.55;;;2.30;;
20375;SDS011;10347;51.828;6.466;2023-08-31T15:04:59;3.28;;;2.20;;
20375;SDS011;10347;51.828;6.466;2023-08-31T15:07:25;2.10;;;1.90;;
20375;SDS011;10347;51.828;6.466;2023-08-31T15:09:51;2.28;;;1.88;;
20375;SDS011;10347;51.828;6.466;2023-08-31T15:12:17;3.10;;;1.83;;